Billings, MT (59101)

2:25 PM MDT on July 27, 2016 (GMT -0600)
Jupiter Sulphur | | Change Station

Elev 3114 ft 45.78 °N, 108.49 °W | Updated 14 minutes ago

Partly Cloudy
Partly Cloudy
85.1 °F
Feels Like 84 °F
N
4.0
Wind Variable Wind from North
Gusts 10.0 mph

Today
High -- | Low -- °F
--% Chance of Precip.
Yesterday
High -- | Low -- °F
Precip. -- in
Pressure 30.03 in
Visibility 10.0 miles
Clouds Few 6500 ft
Few 11000 ft
Heat Index 84 °F
Dew Point 55 °F
Humidity 35%
Rainfall 0.00 in
Snow Depth Not available.
5:51 AM 8:48 PM
Last Quarter, 40% visible
METAR KBIL 271953Z 11007KT 10SM FEW065 FEW110 28/10 A3013 RMK AO2 SLP169 CB DSNT E-SE W-NE SHRA DSNT N T02780100
Pressure 30.03 in
Visibility 10.0 miles
Clouds Few 6500 ft
Few 11000 ft
Heat Index 84 °F
Dew Point 55 °F
Humidity 35%
Rainfall 0.00 in
Snow Depth Not available.
5:51 AM 8:48 PM
Last Quarter, 40% visible
METAR KBIL 271953Z 11007KT 10SM FEW065 FEW110 28/10 A3013 RMK AO2 SLP169 CB DSNT E-SE W-NE SHRA DSNT N T02780100

10-Day Weather Forecast

Almanac

Astronomy

Jul. 27, 2016 Rise Set
Actual Time
Civil Twilight
Nautical Twilight
Astronomical Twilight
Moon
Length of Visible Light
Length of Day
Tomorrow will be .
, % of the Moon is Illuminated

Today's Extremes

State Highs State Lows

Community

WunderPhotos

Upload Photos

1,927,931 photos uploaded!

WunderBlog® & News

Nearby

Air Quality

  Air Quality AQ Index Pollutant
Not available.

Snow Depth

Station Depth Elevation

Earthquake Activity

City Distance Mag. Time & Date
Minimum magnitude displayed is 2.5.

Coastal Water Temperatures

Place Temperature

Stations

Nearby Weather Stations

Station Location Temp. Windchill Dew Point Humidity Wind Precip. Elev Updated Type
                   

Watches & Warnings

There are currently no watches in effect.